createdAt,value
2019-02-10T00:00:39.882Z,0.00
2019-02-10T00:01:39.792Z,0.00
2019-02-10T00:02:39.790Z,0.00
2019-02-10T00:03:40.977Z,0.00
2019-02-10T00:04:39.759Z,0.00
2019-02-10T00:05:39.749Z,0.00
2019-02-10T00:06:39.781Z,0.00
2019-02-10T00:07:39.723Z,0.00
2019-02-10T00:08:39.717Z,0.00
2019-02-10T00:09:39.713Z,0.00
2019-02-10T00:10:39.699Z,0.00
2019-02-10T00:11:39.703Z,0.00
2019-02-10T00:12:39.702Z,0.00
2019-02-10T00:13:39.660Z,0.00
2019-02-10T00:14:39.646Z,0.00
2019-02-10T00:15:39.637Z,0.00
2019-02-10T00:16:39.648Z,0.00
2019-02-10T00:17:39.617Z,0.00
2019-02-10T00:18:39.615Z,0.00
2019-02-10T00:19:39.592Z,0.00
2019-02-10T00:20:39.583Z,0.00
2019-02-10T00:21:39.595Z,0.00
2019-02-10T00:22:39.558Z,0.00
2019-02-10T00:23:39.547Z,0.00
2019-02-10T00:24:39.563Z,0.00
2019-02-10T00:25:39.531Z,0.00
2019-02-10T00:26:39.538Z,0.00
2019-02-10T00:27:39.521Z,0.00
2019-02-10T00:28:39.493Z,0.00
2019-02-10T00:29:39.482Z,0.00
2019-02-10T00:30:39.496Z,0.00
2019-02-10T00:31:39.482Z,0.00
2019-02-10T00:32:39.452Z,0.00
2019-02-10T00:33:39.450Z,0.00
2019-02-10T00:34:39.449Z,0.00
2019-02-10T00:35:39.415Z,0.00
2019-02-10T00:36:39.453Z,0.00
2019-02-10T00:37:39.393Z,0.00
2019-02-10T00:38:39.385Z,0.00
2019-02-10T00:39:39.371Z,0.00
2019-02-10T00:40:39.359Z,0.00
2019-02-10T00:41:39.404Z,0.00
2019-02-10T00:42:39.353Z,0.00
2019-02-10T00:43:39.327Z,0.00
2019-02-10T00:44:39.317Z,0.00
2019-02-10T00:45:39.306Z,0.00
2019-02-10T00:46:39.317Z,0.00
2019-02-10T00:47:39.283Z,0.00
2019-02-10T00:48:39.276Z,0.00
2019-02-10T00:49:39.272Z,0.00
2019-02-10T00:50:39.272Z,0.00
2019-02-10T00:51:39.262Z,0.00
2019-02-10T00:52:39.228Z,0.00
2019-02-10T00:53:39.216Z,0.00
2019-02-10T00:54:39.208Z,0.00
2019-02-10T00:55:39.194Z,0.00
2019-02-10T00:56:39.227Z,0.00
2019-02-10T00:57:39.172Z,0.00
2019-02-10T00:58:39.161Z,0.00
2019-02-10T00:59:39.149Z,0.00
2019-02-10T01:00:39.138Z,0.00
2019-02-10T01:01:39.154Z,0.00
2019-02-10T01:02:39.136Z,0.00
2019-02-10T01:03:39.106Z,0.00
2019-02-10T01:04:39.106Z,0.00
2019-02-10T01:05:39.084Z,0.00
2019-02-10T01:06:41.402Z,0.00
2019-02-10T01:07:39.062Z,0.00
2019-02-10T01:08:39.075Z,0.00
2019-02-10T01:09:39.037Z,0.00
2019-02-10T01:10:39.028Z,0.00
2019-02-10T01:11:39.893Z,0.00
2019-02-10T01:12:39.004Z,0.00
2019-02-10T01:13:39.013Z,0.00
2019-02-10T01:14:38.996Z,0.00
2019-02-10T01:15:38.973Z,0.00
2019-02-10T01:16:38.990Z,0.00
2019-02-10T01:17:38.948Z,0.00
2019-02-10T01:18:38.939Z,0.00
2019-02-10T01:19:38.926Z,0.00
2019-02-10T01:20:38.940Z,0.00
2019-02-10T01:21:38.929Z,0.00
2019-02-10T01:22:38.894Z,0.00
2019-02-10T01:23:38.882Z,0.00
2019-02-10T01:24:38.873Z,0.00
2019-02-10T01:25:38.862Z,0.00
2019-02-10T01:26:38.871Z,0.00
2019-02-10T01:27:38.855Z,0.00
2019-02-10T01:28:38.828Z,0.00
2019-02-10T01:29:38.816Z,0.00
2019-02-10T01:30:38.809Z,0.00
2019-02-10T01:31:38.817Z,0.00
2019-02-10T01:32:38.785Z,0.00
2019-02-10T01:33:38.780Z,0.00
2019-02-10T01:34:38.763Z,0.00
2019-02-10T01:35:38.748Z,0.00
2019-02-10T01:36:38.764Z,0.00
2019-02-10T01:37:38.728Z,0.00
2019-02-10T01:38:38.716Z,0.00
2019-02-10T01:39:38.715Z,0.00
2019-02-10T01:40:38.694Z,0.00
2019-02-10T01:41:38.708Z,0.00
2019-02-10T01:42:38.675Z,0.00
2019-02-10T01:43:38.660Z,0.00
2019-02-10T01:44:38.666Z,0.00
2019-02-10T01:45:38.639Z,0.00
2019-02-10T01:46:38.663Z,0.00
2019-02-10T01:47:38.618Z,0.00
2019-02-10T01:48:38.609Z,0.00
2019-02-10T01:49:38.625Z,0.00
2019-02-10T01:50:38.586Z,0.00
2019-02-10T01:51:38.574Z,0.00
2019-02-10T01:52:38.583Z,0.00
2019-02-10T01:53:38.549Z,0.00
2019-02-10T01:54:38.539Z,0.00
2019-02-10T01:55:38.539Z,0.00
2019-02-10T01:56:38.516Z,0.00
2019-02-10T01:57:38.528Z,0.00
2019-02-10T01:58:38.499Z,0.00
2019-02-10T01:59:38.504Z,0.00
2019-02-10T02:00:38.474Z,0.00
2019-02-10T02:01:38.499Z,0.00
2019-02-10T02:02:38.473Z,0.00
2019-02-10T02:03:38.439Z,0.00
2019-02-10T02:04:38.435Z,0.00
2019-02-10T02:05:38.417Z,0.00
2019-02-10T02:06:38.406Z,0.00
2019-02-10T02:07:38.456Z,0.00
2019-02-10T02:08:38.409Z,0.00
2019-02-10T02:09:38.375Z,0.00
2019-02-10T02:10:38.362Z,0.00
2019-02-10T02:11:38.350Z,0.00
2019-02-10T02:12:38.362Z,0.00
2019-02-10T02:13:38.357Z,0.00
2019-02-10T02:14:38.318Z,0.00
2019-02-10T02:15:38.307Z,0.00
2019-02-10T02:16:38.296Z,0.00
2019-02-10T02:17:38.311Z,0.00
2019-02-10T02:18:38.273Z,0.00
2019-02-10T02:19:38.292Z,0.00
2019-02-10T02:20:38.257Z,0.00
2019-02-10T02:21:38.241Z,0.00
2019-02-10T02:22:38.256Z,0.00
2019-02-10T02:23:38.219Z,0.00
2019-02-10T02:24:38.211Z,0.00
2019-02-10T02:25:38.229Z,0.00
2019-02-10T02:26:38.186Z,0.00
2019-02-10T02:27:38.199Z,0.00
2019-02-10T02:28:38.172Z,0.00
2019-02-10T02:29:38.164Z,0.00
2019-02-10T02:30:38.142Z,0.00
2019-02-10T02:31:38.154Z,0.00
2019-02-10T02:32:38.145Z,0.00
2019-02-10T02:33:38.110Z,0.00
2019-02-10T02:34:38.103Z,0.00
2019-02-10T02:35:38.098Z,0.00
2019-02-10T02:36:38.080Z,0.00
2019-02-10T02:37:38.129Z,0.00
2019-02-10T02:38:38.053Z,0.00
2019-02-10T02:39:38.044Z,0.00
2019-02-10T02:40:38.037Z,0.00
2019-02-10T02:41:38.052Z,0.00
2019-02-10T02:42:38.036Z,0.00
2019-02-10T02:43:38.020Z,0.00
2019-02-10T02:44:37.996Z,0.00
2019-02-10T02:45:37.980Z,0.00
2019-02-10T02:46:37.967Z,0.00
2019-02-10T02:47:37.981Z,0.00
2019-02-10T02:48:37.946Z,0.00
2019-02-10T02:49:37.994Z,0.00
2019-02-10T02:50:37.924Z,0.00
2019-02-10T02:51:37.935Z,0.00
2019-02-10T02:52:37.926Z,0.00
2019-02-10T02:53:37.891Z,0.00
2019-02-10T02:54:37.879Z,0.00
2019-02-10T02:55:37.881Z,0.00
2019-02-10T02:56:37.868Z,0.00
2019-02-10T02:57:37.870Z,0.00
2019-02-10T02:58:37.834Z,0.00
2019-02-10T02:59:37.837Z,0.00
2019-02-10T03:00:37.814Z,0.00
2019-02-10T03:01:37.826Z,0.00
2019-02-10T03:02:37.817Z,0.00
2019-02-10T03:03:37.781Z,0.00
2019-02-10T03:04:37.770Z,0.00
2019-02-10T03:05:37.757Z,0.00
2019-02-10T03:06:37.748Z,0.00
2019-02-10T03:07:37.794Z,0.00
2019-02-10T03:08:37.727Z,0.00
2019-02-10T03:09:37.714Z,0.00
2019-02-10T03:10:37.713Z,0.00
2019-02-10T03:11:37.691Z,0.00
2019-02-10T03:12:37.705Z,0.00
2019-02-10T03:13:37.698Z,0.00
2019-02-10T03:14:37.657Z,0.00
2019-02-10T03:15:37.647Z,0.00
2019-02-10T03:16:37.662Z,0.00
2019-02-10T03:17:37.662Z,0.00
2019-02-10T03:18:37.615Z,0.00
2019-02-10T03:19:37.623Z,0.00
2019-02-10T03:20:37.594Z,0.00
2019-02-10T03:21:37.579Z,0.00
2019-02-10T03:22:37.591Z,0.00
2019-02-10T03:23:37.557Z,0.00
2019-02-10T03:24:37.545Z,0.00
2019-02-10T03:25:37.553Z,0.00
2019-02-10T03:26:37.524Z,0.00
2019-02-10T03:27:37.539Z,0.00
2019-02-10T03:28:37.501Z,0.00
2019-02-10T03:29:37.490Z,0.00
2019-02-10T03:30:37.482Z,0.00
2019-02-10T03:31:37.509Z,0.00
2019-02-10T03:32:37.473Z,0.00
2019-02-10T03:33:37.469Z,0.00
2019-02-10T03:34:37.436Z,0.00
2019-02-10T03:35:37.425Z,0.00
2019-02-10T03:36:37.412Z,0.00
2019-02-10T03:37:37.404Z,0.00
2019-02-10T03:38:37.430Z,0.00
2019-02-10T03:39:37.383Z,0.00
2019-02-10T03:40:37.369Z,0.00
2019-02-10T03:41:37.358Z,0.00
2019-02-10T03:42:37.350Z,0.00
2019-02-10T03:43:37.360Z,0.00
2019-02-10T03:44:37.345Z,0.00
2019-02-10T03:45:37.326Z,0.00
2019-02-10T03:46:37.301Z,0.00
2019-02-10T03:47:37.290Z,0.00
2019-02-10T03:48:37.306Z,0.00
2019-02-10T03:49:37.269Z,0.00
2019-02-10T03:50:37.261Z,0.00
2019-02-10T03:51:37.257Z,0.00
2019-02-10T03:52:37.237Z,0.00
2019-02-10T03:53:37.248Z,0.00
2019-02-10T03:54:37.215Z,0.00
2019-02-10T03:55:37.202Z,0.00
2019-02-10T03:56:37.194Z,0.00
2019-02-10T03:57:37.217Z,0.00
2019-02-10T03:58:37.258Z,0.00
2019-02-10T03:59:37.160Z,0.00
2019-02-10T04:00:37.150Z,0.00
2019-02-10T04:01:37.140Z,0.00
2019-02-10T04:02:37.136Z,0.00
2019-02-10T04:03:37.140Z,0.00
2019-02-10T04:04:37.137Z,0.00
2019-02-10T04:05:37.093Z,0.00
2019-02-10T04:06:37.080Z,0.00
2019-02-10T04:07:37.077Z,0.00
2019-02-10T04:08:37.083Z,0.00
2019-02-10T04:09:37.047Z,0.00
2019-02-10T04:10:37.040Z,0.00
2019-02-10T04:11:37.036Z,0.00
2019-02-10T04:12:37.014Z,0.00
2019-02-10T04:13:37.025Z,0.00
2019-02-10T04:14:36.990Z,0.00
2019-02-10T04:15:36.980Z,0.00
2019-02-10T04:16:36.971Z,0.00
2019-02-10T04:17:36.967Z,0.00
2019-02-10T04:18:36.975Z,0.00
2019-02-10T04:19:36.937Z,0.00
2019-02-10T04:20:36.925Z,0.00
2019-02-10T04:21:36.914Z,0.00
2019-02-10T04:22:36.902Z,0.00
2019-02-10T04:23:36.920Z,0.00
2019-02-10T04:24:36.887Z,0.00
2019-02-10T04:25:36.880Z,0.00
2019-02-10T04:26:36.861Z,0.00
2019-02-10T04:27:36.848Z,0.00
2019-02-10T04:28:36.859Z,0.00
2019-02-10T04:29:36.836Z,0.00
2019-02-10T04:30:36.831Z,0.00
2019-02-10T04:31:36.807Z,0.00
2019-02-10T04:32:36.795Z,0.00
2019-02-10T04:33:36.805Z,0.00
2019-02-10T04:34:36.770Z,0.00
2019-02-10T04:35:36.780Z,0.00
2019-02-10T04:36:36.746Z,0.00
2019-02-10T04:37:45.047Z,0.00
2019-02-10T04:38:37.745Z,0.00
2019-02-10T04:39:36.713Z,0.00
2019-02-10T04:40:36.702Z,0.00
2019-02-10T04:41:36.694Z,0.00
2019-02-10T04:42:36.680Z,0.00
2019-02-10T04:43:36.709Z,0.00
2019-02-10T04:44:36.657Z,0.00
2019-02-10T04:45:36.655Z,0.00
2019-02-10T04:46:36.635Z,0.00
2019-02-10T04:47:36.627Z,0.00
2019-02-10T04:48:36.642Z,0.00
2019-02-10T04:49:36.613Z,0.00
2019-02-10T04:50:36.596Z,0.00
2019-02-10T04:51:36.581Z,0.00
2019-02-10T04:52:36.570Z,0.00
2019-02-10T04:53:36.581Z,0.00
2019-02-10T04:54:36.561Z,0.00
2019-02-10T04:55:36.566Z,0.00
2019-02-10T04:56:36.537Z,0.00
2019-02-10T04:57:36.518Z,0.00
2019-02-10T04:58:36.526Z,0.00
2019-02-10T04:59:36.493Z,0.00
2019-02-10T05:00:36.483Z,0.00
2019-02-10T05:01:36.480Z,0.00
2019-02-10T05:02:36.461Z,0.00
2019-02-10T05:03:36.475Z,0.00
2019-02-10T05:04:36.436Z,0.00
2019-02-10T05:05:36.425Z,0.00
2019-02-10T05:06:36.416Z,0.00
2019-02-10T05:07:36.430Z,0.00
2019-02-10T05:08:36.422Z,0.00
2019-02-10T05:09:36.383Z,0.00
2019-02-10T05:10:36.370Z,0.00
2019-02-10T05:11:36.359Z,0.00
2019-02-10T05:12:36.350Z,0.00
2019-02-10T05:13:36.472Z,0.00
2019-02-10T05:14:36.326Z,0.00
2019-02-10T05:15:36.314Z,0.00
2019-02-10T05:16:36.303Z,0.00
2019-02-10T05:17:36.293Z,0.00
2019-02-10T05:18:36.283Z,0.00
2019-02-10T05:19:36.301Z,0.00
2019-02-10T05:20:36.258Z,0.00
2019-02-10T05:21:36.248Z,0.00
2019-02-10T05:22:36.238Z,0.00
2019-02-10T05:23:36.230Z,0.00
2019-02-10T05:24:36.239Z,0.00
2019-02-10T05:25:36.217Z,0.00
2019-02-10T05:26:36.196Z,0.00
2019-02-10T05:27:36.186Z,0.00
2019-02-10T05:28:36.177Z,0.00
2019-02-10T05:29:36.186Z,0.00
2019-02-10T05:30:36.149Z,0.00
2019-02-10T05:31:36.168Z,0.00
2019-02-10T05:32:36.128Z,0.00
2019-02-10T05:33:36.116Z,0.00
2019-02-10T05:34:36.134Z,0.00
2019-02-10T05:35:36.096Z,0.00
2019-02-10T05:36:36.084Z,0.00
2019-02-10T05:37:36.111Z,0.00
2019-02-10T05:38:36.067Z,0.00
2019-02-10T05:39:36.074Z,0.00
2019-02-10T05:40:36.040Z,0.00
2019-02-10T05:41:36.032Z,0.00
2019-02-10T05:42:36.017Z,0.00
2019-02-10T05:43:36.044Z,0.00
2019-02-10T05:44:36.019Z,0.00
2019-02-10T05:45:35.984Z,0.00
2019-02-10T05:46:35.975Z,0.00
2019-02-10T05:47:35.966Z,0.00
2019-02-10T05:48:35.951Z,0.00
2019-02-10T05:49:35.976Z,0.00
2019-02-10T05:50:35.930Z,0.00
2019-02-10T05:51:35.917Z,0.00
2019-02-10T05:52:35.909Z,0.00
2019-02-10T05:53:35.898Z,0.00
2019-02-10T05:54:35.909Z,0.00
2019-02-10T05:55:35.898Z,0.00
2019-02-10T05:56:35.865Z,0.00
2019-02-10T05:57:35.853Z,0.00
2019-02-10T05:58:35.843Z,0.00
2019-02-10T05:59:35.859Z,0.00
2019-02-10T06:00:35.819Z,0.00
2019-02-10T06:01:35.815Z,0.00
2019-02-10T06:02:35.799Z,0.00
2019-02-10T06:03:35.785Z,0.00
2019-02-10T06:04:35.804Z,0.00
2019-02-10T06:05:35.766Z,0.00
2019-02-10T06:06:35.753Z,0.00
2019-02-10T06:07:35.758Z,0.00
2019-02-10T06:08:35.732Z,0.00
2019-02-10T06:09:35.746Z,0.00
2019-02-10T06:10:35.710Z,0.00
2019-02-10T06:11:35.702Z,0.00
2019-02-10T06:12:35.688Z,0.00
2019-02-10T06:13:35.685Z,0.00
2019-02-10T06:14:35.694Z,0.00
2019-02-10T06:15:35.656Z,0.00
2019-02-10T06:16:35.644Z,0.00
2019-02-10T06:17:35.632Z,0.00
2019-02-10T06:18:35.623Z,0.00
2019-02-10T06:19:35.657Z,0.00
2019-02-10T06:20:35.600Z,0.00
2019-02-10T06:21:35.589Z,0.00
2019-02-10T06:22:35.580Z,0.00
2019-02-10T06:23:35.567Z,0.00
2019-02-10T06:24:35.578Z,0.00
2019-02-10T06:25:35.555Z,0.00
2019-02-10T06:26:35.534Z,0.00
2019-02-10T06:27:35.523Z,0.00
2019-02-10T06:28:35.511Z,0.00
2019-02-10T06:29:35.523Z,0.00
2019-02-10T06:30:35.503Z,0.00
2019-02-10T06:31:35.503Z,0.00
2019-02-10T06:32:35.469Z,0.00
2019-02-10T06:33:35.457Z,0.00
2019-02-10T06:34:35.472Z,0.00
2019-02-10T06:35:35.436Z,4.00
2019-02-10T06:36:35.432Z,4.00
2019-02-10T06:37:35.419Z,4.00
2019-02-10T06:38:35.401Z,4.00
2019-02-10T06:39:35.413Z,0.00
2019-02-10T06:40:35.382Z,4.00
2019-02-10T06:41:35.369Z,4.00
2019-02-10T06:42:35.359Z,4.00
2019-02-10T06:43:35.360Z,4.00
2019-02-10T06:44:35.360Z,4.00
2019-02-10T06:45:35.327Z,4.00
2019-02-10T06:46:35.311Z,8.00
2019-02-10T06:47:35.300Z,8.00
2019-02-10T06:48:35.295Z,8.00
2019-02-10T06:49:35.320Z,12.00
2019-02-10T06:50:35.270Z,12.00
2019-02-10T06:51:35.259Z,12.00
2019-02-10T06:52:35.246Z,16.00
2019-02-10T06:53:35.235Z,12.00
2019-02-10T06:54:35.249Z,16.00
2019-02-10T06:55:35.233Z,12.00
2019-02-10T06:56:35.200Z,16.00
2019-02-10T06:57:35.188Z,20.00
2019-02-10T06:58:35.176Z,24.00
2019-02-10T06:59:35.167Z,24.00
2019-02-10T07:00:35.176Z,32.00
2019-02-10T07:01:35.154Z,36.00
2019-02-10T07:02:35.132Z,40.00
2019-02-10T07:03:35.121Z,48.00
2019-02-10T07:04:35.110Z,52.00
2019-02-10T07:05:35.124Z,56.00
2019-02-10T07:06:35.088Z,60.00
2019-02-10T07:07:35.080Z,56.00
2019-02-10T07:08:35.111Z,68.00
2019-02-10T07:09:35.054Z,84.00
2019-02-10T07:10:35.066Z,88.00
2019-02-10T07:11:35.031Z,92.00
2019-02-10T07:12:35.021Z,108.00
2019-02-10T07:13:35.009Z,124.00
2019-02-10T07:14:35.005Z,132.00
2019-02-10T07:15:35.009Z,144.00
2019-02-10T07:16:34.976Z,144.00
2019-02-10T07:17:34.965Z,140.00
2019-02-10T07:18:34.953Z,152.00
2019-02-10T07:19:34.944Z,172.00
2019-02-10T07:20:34.987Z,188.00
2019-02-10T07:21:34.921Z,184.00
2019-02-10T07:22:34.909Z,180.00
2019-02-10T07:23:34.897Z,164.00
2019-02-10T07:24:34.888Z,136.00
2019-02-10T07:25:34.899Z,144.00
2019-02-10T07:26:34.876Z,136.00
2019-02-10T07:27:34.855Z,132.00
2019-02-10T07:28:34.842Z,148.00
2019-02-10T07:29:34.830Z,168.00
2019-02-10T07:30:34.841Z,152.00
2019-02-10T07:31:34.808Z,160.00
2019-02-10T07:32:34.817Z,176.00
2019-02-10T07:33:34.785Z,184.00
2019-02-10T07:34:34.777Z,188.00
2019-02-10T07:35:34.791Z,188.00
2019-02-10T07:36:34.753Z,216.00
2019-02-10T07:37:34.741Z,228.00
2019-02-10T07:38:38.795Z,268.00
2019-02-10T07:39:34.718Z,252.00
2019-02-10T07:40:34.729Z,256.00
2019-02-10T07:41:34.698Z,252.00
2019-02-10T07:42:34.685Z,280.00
2019-02-10T07:43:34.674Z,280.00
2019-02-10T07:44:34.699Z,268.00
2019-02-10T07:45:34.678Z,272.00
2019-02-10T07:46:34.639Z,332.00
2019-02-10T07:47:34.632Z,332.00
2019-02-10T07:48:34.621Z,332.00
2019-02-10T07:49:34.607Z,344.00
2019-02-10T07:50:35.757Z,376.00
2019-02-10T07:51:34.585Z,352.00
2019-02-10T07:52:34.573Z,336.00
2019-02-10T07:53:34.563Z,324.00
2019-02-10T07:54:42.001Z,344.00
2019-02-10T07:55:35.562Z,396.00
2019-02-10T07:56:34.548Z,424.00
2019-02-10T07:57:34.518Z,388.00
2019-02-10T07:58:34.505Z,380.00
2019-02-10T07:59:34.496Z,424.00
2019-02-10T08:00:34.514Z,448.00
2019-02-10T08:01:34.473Z,464.00
2019-02-10T08:02:34.493Z,448.00
2019-02-10T08:03:34.465Z,412.00
2019-02-10T08:04:34.440Z,412.00
2019-02-10T08:05:34.451Z,448.00
2019-02-10T08:06:34.418Z,520.00
2019-02-10T08:07:34.406Z,564.00
2019-02-10T08:08:34.395Z,508.00
2019-02-10T08:09:34.395Z,484.00
2019-02-10T08:10:34.398Z,516.00
2019-02-10T08:11:34.361Z,540.00
2019-02-10T08:12:34.350Z,640.00
2019-02-10T08:13:34.340Z,684.00
2019-02-10T08:14:34.328Z,696.00
2019-02-10T08:15:34.345Z,640.00
2019-02-10T08:16:34.328Z,556.00
2019-02-10T08:17:34.295Z,516.00
2019-02-10T08:18:34.284Z,612.00
2019-02-10T08:19:34.275Z,628.00
2019-02-10T08:20:34.295Z,504.00
2019-02-10T08:21:34.251Z,564.00
2019-02-10T08:22:34.287Z,708.00
2019-02-10T08:23:34.228Z,592.00
2019-02-10T08:24:34.217Z,576.00
2019-02-10T08:25:34.228Z,472.00
2019-02-10T08:26:34.194Z,440.00
2019-02-10T08:27:34.186Z,492.00
2019-02-10T08:28:34.184Z,552.00
2019-02-10T08:29:34.160Z,632.00
2019-02-10T08:30:34.172Z,716.00
2019-02-10T08:31:34.141Z,704.00
2019-02-10T08:32:34.129Z,728.00
2019-02-10T08:33:34.117Z,720.00
2019-02-10T08:34:34.111Z,732.00
2019-02-10T08:35:34.117Z,648.00
2019-02-10T08:36:34.082Z,616.00
2019-02-10T08:37:34.073Z,580.00
2019-02-10T08:38:34.062Z,628.00
2019-02-10T08:39:34.050Z,552.00
2019-02-10T08:40:34.074Z,568.00
2019-02-10T08:41:34.053Z,624.00
2019-02-10T08:42:34.028Z,740.00
2019-02-10T08:43:34.007Z,800.00
2019-02-10T08:44:33.994Z,796.00
2019-02-10T08:45:33.985Z,756.00
2019-02-10T08:46:34.004Z,704.00
2019-02-10T08:47:34.086Z,700.00
2019-02-10T08:48:33.949Z,656.00
2019-02-10T08:49:33.942Z,644.00
2019-02-10T08:50:33.930Z,644.00
2019-02-10T08:51:33.940Z,648.00
2019-02-10T08:52:33.921Z,668.00
2019-02-10T08:53:33.896Z,568.00
2019-02-10T08:54:33.886Z,528.00
2019-02-10T08:55:33.875Z,564.00
2019-02-10T08:56:33.885Z,596.00
2019-02-10T08:57:33.855Z,572.00
2019-02-10T08:58:33.859Z,476.00
2019-02-10T08:59:33.830Z,484.00
2019-02-10T09:00:33.839Z,460.00
2019-02-10T09:01:33.834Z,448.00
2019-02-10T09:02:33.797Z,472.00
2019-02-10T09:03:33.785Z,484.00
2019-02-10T09:04:33.784Z,520.00
2019-02-10T09:05:33.767Z,532.00
2019-02-10T09:06:33.783Z,504.00
2019-02-10T09:07:33.741Z,556.00
2019-02-10T09:08:33.732Z,560.00
2019-02-10T09:09:33.731Z,604.00
2019-02-10T09:10:33.715Z,684.00
2019-02-10T09:11:33.726Z,720.00
2019-02-10T09:12:33.695Z,652.00
2019-02-10T09:13:33.677Z,668.00
2019-02-10T09:14:33.668Z,624.00
2019-02-10T09:15:33.655Z,648.00
2019-02-10T09:16:33.670Z,632.00
2019-02-10T09:17:33.633Z,600.00
2019-02-10T09:18:33.623Z,576.00
2019-02-10T09:19:33.627Z,560.00
2019-02-10T09:20:33.598Z,568.00
2019-02-10T09:21:33.609Z,596.00
2019-02-10T09:22:33.576Z,560.00
2019-02-10T09:23:33.583Z,636.00
2019-02-10T09:24:33.554Z,660.00
2019-02-10T09:25:33.544Z,636.00
2019-02-10T09:26:33.564Z,704.00
2019-02-10T09:27:33.524Z,728.00
2019-02-10T09:28:33.510Z,664.00
2019-02-10T09:29:33.513Z,632.00
2019-02-10T09:30:33.491Z,672.00
2019-02-10T09:31:33.500Z,728.00
2019-02-10T09:32:33.466Z,796.00
2019-02-10T09:33:33.455Z,808.00
2019-02-10T09:34:33.444Z,732.00
2019-02-10T09:35:33.432Z,676.00
2019-02-10T09:36:33.446Z,736.00
2019-02-10T09:37:33.418Z,732.00
2019-02-10T09:38:33.419Z,748.00
2019-02-10T09:39:33.421Z,768.00
2019-02-10T09:40:33.400Z,800.00
2019-02-10T09:41:33.399Z,828.00
2019-02-10T09:42:33.355Z,800.00
2019-02-10T09:43:33.356Z,852.00
2019-02-10T09:44:33.356Z,852.00
2019-02-10T09:45:33.329Z,824.00
2019-02-10T09:46:33.335Z,884.00
2019-02-10T09:47:33.359Z,812.00
2019-02-10T09:48:33.290Z,900.00
2019-02-10T09:49:33.278Z,924.00
2019-02-10T09:50:33.291Z,912.00
2019-02-10T09:51:33.298Z,980.00
2019-02-10T09:52:33.245Z,880.00
2019-02-10T09:53:33.247Z,800.00
2019-02-10T09:54:33.229Z,816.00
2019-02-10T09:55:33.214Z,832.00
2019-02-10T09:56:33.224Z,912.00
2019-02-10T09:57:33.190Z,836.00
2019-02-10T09:58:33.200Z,932.00
2019-02-10T09:59:33.169Z,852.00
2019-02-10T10:00:33.161Z,840.00
2019-02-10T10:01:33.167Z,992.00
2019-02-10T10:02:33.136Z,1036.00
2019-02-10T10:03:33.128Z,1096.00
2019-02-10T10:04:33.112Z,1064.00
2019-02-10T10:05:33.127Z,1112.00
2019-02-10T10:06:33.114Z,1100.00
2019-02-10T10:07:33.080Z,1112.00
2019-02-10T10:08:33.070Z,1168.00
2019-02-10T10:09:33.058Z,1208.00
2019-02-10T10:10:33.044Z,1328.00
2019-02-10T10:11:33.061Z,1368.00
2019-02-10T10:12:33.024Z,1344.00
2019-02-10T10:13:33.011Z,1292.00
2019-02-10T10:14:33.003Z,1372.00
2019-02-10T10:15:32.997Z,1364.00
2019-02-10T10:16:33.001Z,1260.00
2019-02-10T10:17:32.992Z,1352.00
2019-02-10T10:18:32.955Z,1476.00
2019-02-10T10:19:32.963Z,1464.00
2019-02-10T10:20:32.940Z,1256.00
2019-02-10T10:21:32.920Z,1240.00
2019-02-10T10:22:32.937Z,1276.00
2019-02-10T10:23:32.902Z,1300.00
2019-02-10T10:24:32.888Z,1084.00
2019-02-10T10:25:32.938Z,1168.00
2019-02-10T10:26:32.868Z,1308.00
2019-02-10T10:27:32.883Z,1344.00
2019-02-10T10:28:32.862Z,1376.00
2019-02-10T10:29:32.837Z,1516.00
2019-02-10T10:30:32.822Z,1380.00
2019-02-10T10:31:32.813Z,1232.00
2019-02-10T10:32:32.823Z,1304.00
2019-02-10T10:33:32.829Z,1408.00
2019-02-10T10:34:32.792Z,1256.00
2019-02-10T10:35:32.765Z,1220.00
2019-02-10T10:36:32.753Z,1304.00
2019-02-10T10:37:32.770Z,1492.00
2019-02-10T10:38:32.732Z,1708.00
2019-02-10T10:39:32.726Z,1596.00
2019-02-10T10:40:32.713Z,1664.00
2019-02-10T10:41:32.718Z,1732.00
2019-02-10T10:42:32.715Z,1904.00
2019-02-10T10:43:32.694Z,2148.00
2019-02-10T10:44:32.666Z,2308.00
2019-02-10T10:45:32.654Z,2040.00
2019-02-10T10:46:32.642Z,2048.00
2019-02-10T10:47:32.672Z,2036.00
2019-02-10T10:48:32.622Z,2096.00
2019-02-10T10:49:32.614Z,1880.00
2019-02-10T10:50:32.618Z,1640.00
2019-02-10T10:51:32.606Z,1716.00
2019-02-10T10:52:32.602Z,1588.00
2019-02-10T10:53:32.595Z,1580.00
2019-02-10T10:54:32.557Z,1604.00
2019-02-10T10:55:32.558Z,1692.00
2019-02-10T10:56:32.533Z,1928.00
2019-02-10T10:57:32.563Z,1984.00
2019-02-10T10:58:32.511Z,1972.00
2019-02-10T10:59:32.510Z,1868.00
2019-02-10T11:00:32.488Z,1808.00
2019-02-10T11:01:32.478Z,1748.00
2019-02-10T11:02:32.500Z,1604.00
2019-02-10T11:03:32.469Z,1804.00
2019-02-10T11:04:32.471Z,1788.00
2019-02-10T11:05:32.444Z,1652.00
2019-02-10T11:06:33.981Z,1496.00
2019-02-10T11:07:32.491Z,1532.00
2019-02-10T11:08:32.410Z,1520.00
2019-02-10T11:09:35.563Z,1468.00
2019-02-10T11:10:32.379Z,1580.00
2019-02-10T11:11:32.382Z,1728.00
2019-02-10T11:12:32.385Z,1776.00
2019-02-10T11:13:32.344Z,1788.00
2019-02-10T11:14:32.346Z,1712.00
2019-02-10T11:15:32.327Z,1744.00
2019-02-10T11:16:32.314Z,1732.00
2019-02-10T11:17:32.332Z,1668.00
2019-02-10T11:18:32.295Z,1760.00
2019-02-10T11:19:32.281Z,1912.00
2019-02-10T11:20:32.266Z,2088.00
2019-02-10T11:21:32.273Z,2064.00
2019-02-10T11:22:32.291Z,1920.00
2019-02-10T11:23:32.234Z,2064.00
2019-02-10T11:24:32.223Z,2080.00
2019-02-10T11:25:32.239Z,1980.00
2019-02-10T11:26:32.217Z,1940.00
2019-02-10T11:27:32.223Z,2060.00
2019-02-10T11:28:32.179Z,2300.00
2019-02-10T11:29:32.172Z,2568.00
2019-02-10T11:30:32.176Z,2592.00
2019-02-10T11:31:32.145Z,2616.00
2019-02-10T11:32:32.158Z,2272.00
2019-02-10T11:33:32.120Z,2216.00
2019-02-10T11:34:32.110Z,2484.00
2019-02-10T11:35:32.100Z,2452.00
2019-02-10T11:36:32.088Z,2308.00
2019-02-10T11:37:32.113Z,2240.00
2019-02-10T11:38:32.068Z,2268.00
2019-02-10T11:39:32.055Z,2432.00
2019-02-10T11:40:32.058Z,2260.00
2019-02-10T11:41:32.047Z,2220.00
2019-02-10T11:42:32.059Z,2356.00
2019-02-10T11:43:32.028Z,2364.00
2019-02-10T11:44:32.005Z,2304.00
2019-02-10T11:45:32.008Z,2088.00
2019-02-10T11:46:31.986Z,1916.00
2019-02-10T11:47:31.990Z,1844.00
2019-02-10T11:48:31.954Z,1836.00
2019-02-10T11:49:31.944Z,1900.00
2019-02-10T11:50:31.930Z,1852.00
2019-02-10T11:51:31.919Z,1728.00
2019-02-10T11:52:31.932Z,1564.00
2019-02-10T11:53:31.909Z,1584.00
2019-02-10T11:54:31.888Z,1668.00
2019-02-10T11:55:31.894Z,1508.00
2019-02-10T11:56:31.865Z,1476.00
2019-02-10T11:57:31.899Z,1536.00
2019-02-10T11:58:31.841Z,1700.00
2019-02-10T11:59:31.839Z,1576.00
2019-02-10T12:00:31.825Z,1624.00
2019-02-10T12:01:31.820Z,1748.00
2019-02-10T12:02:37.767Z,2128.00
2019-02-10T12:03:32.815Z,2684.00
2019-02-10T12:04:31.776Z,3116.00
2019-02-10T12:05:31.765Z,3364.00
2019-02-10T12:06:31.772Z,3320.00
2019-02-10T12:07:31.743Z,3364.00
2019-02-10T12:08:35.637Z,3632.00
2019-02-10T12:09:31.720Z,3720.00
2019-02-10T12:10:31.717Z,3752.00
2019-02-10T12:11:31.699Z,3856.00
2019-02-10T12:12:31.696Z,3828.00
2019-02-10T12:13:31.718Z,3404.00
2019-02-10T12:14:31.663Z,3136.00
2019-02-10T12:15:31.658Z,3016.00
2019-02-10T12:16:31.655Z,2984.00
2019-02-10T12:17:31.660Z,2888.00
2019-02-10T12:18:31.661Z,2924.00
2019-02-10T12:19:31.609Z,2904.00
2019-02-10T12:20:31.598Z,2772.00
2019-02-10T12:21:31.595Z,2528.00
2019-02-10T12:22:31.576Z,2420.00
2019-02-10T12:23:31.588Z,2440.00
2019-02-10T12:24:31.569Z,2512.00
2019-02-10T12:25:31.561Z,2372.00
2019-02-10T12:26:31.549Z,2368.00
2019-02-10T12:27:31.519Z,2440.00
2019-02-10T12:28:31.554Z,2504.00
2019-02-10T12:29:31.516Z,2680.00
2019-02-10T12:30:31.517Z,2856.00
2019-02-10T12:31:31.476Z,2944.00
2019-02-10T12:32:31.467Z,2668.00
2019-02-10T12:33:31.496Z,2212.00
2019-02-10T12:34:31.467Z,2056.00
2019-02-10T12:35:31.437Z,1888.00
2019-02-10T12:36:31.426Z,1908.00
2019-02-10T12:37:32.701Z,1852.00
2019-02-10T12:38:31.423Z,1688.00
2019-02-10T12:39:31.386Z,1444.00
2019-02-10T12:40:31.394Z,1368.00
2019-02-10T12:41:31.374Z,1292.00
2019-02-10T12:42:31.373Z,1112.00
2019-02-10T12:43:31.388Z,1108.00
2019-02-10T12:44:31.345Z,996.00
2019-02-10T12:45:31.325Z,936.00
2019-02-10T12:46:31.322Z,1376.00
2019-02-10T12:47:31.299Z,2080.00
2019-02-10T12:48:31.339Z,2680.00
2019-02-10T12:49:31.278Z,2768.00